Time,TemperatureF,DewpointF,PressureIn,WindDirection,WindDirectionDegrees,WindSpeedMPH,WindSpeedGustMPH,Humidity,HourlyPrecipIn,Conditions,Clouds,dailyrainin,SolarRadiationWatts/m^2,SoftwareType,DateUTC
2013-09-13 00:01:00,73.9,73.6,29.93,East,90,1.6,1.6,99,0.00,,,0.00,1213.0,meteobridge,2013-09-13 04:01:00,
2013-09-13 00:02:00,73.8,73.4,29.93,East,90,2.2,2.2,99,0.00,,,0.00,1213.0,meteobridge,2013-09-13 04:02:00,
2013-09-13 00:03:00,73.8,73.4,29.93,East,90,2.2,2.2,99,0.00,,,0.00,1213.0,meteobridge,2013-09-13 04:03:00,
2013-09-13 00:09:00,73.8,73.4,29.93,NE,45,0.7,0.7,99,0.00,,,0.00,1213.0,meteobridge,2013-09-13 04:09:00,
2013-09-13 00:14:00,73.6,73.2,29.93,East,90,0.7,0.7,99,0.00,,,0.00,1250.0,meteobridge,2013-09-13 04:14:00,
2013-09-13 00:19:00,73.6,73.2,29.93,East,90,2.2,2.2,99,0.00,,,0.00,1250.0,meteobridge,2013-09-13 04:19:00,
2013-09-13 00:24:00,73.6,73.2,29.93,West,270,0.7,1.6,99,0.00,,,0.00,1250.0,meteobridge,2013-09-13 04:24:00,
2013-09-13 00:29:00,73.6,73.2,29.93,North,0,0.0,0.0,99,0.00,,,0.00,1250.0,meteobridge,2013-09-13 04:29:00,
2013-09-13 00:34:00,73.2,72.9,29.92,North,0,0.0,0.0,99,0.00,,,0.00,1287.0,meteobridge,2013-09-13 04:34:00,
2013-09-13 00:40:00,73.0,72.7,29.92,South,180,0.7,0.7,99,0.00,,,0.00,1287.0,meteobridge,2013-09-13 04:40:00,
2013-09-13 00:45:00,72.9,72.5,29.92,West,270,0.0,0.0,99,0.00,,,0.00,1323.0,meteobridge,2013-09-13 04:45:00,
2013-09-13 00:50:00,73.0,72.7,29.92,West,270,0.0,0.0,99,0.00,,,0.00,1323.0,meteobridge,2013-09-13 04:50:00,
2013-09-13 00:55:00,73.0,72.7,29.92,West,270,0.0,0.0,99,0.00,,,0.00,1360.0,meteobridge,2013-09-13 04:55:00,
2013-09-13 01:00:00,72.9,72.5,29.92,West,270,0.0,0.0,99,0.00,,,0.00,1360.0,meteobridge,2013-09-13 05:00:00,
2013-09-13 01:05:00,73.0,72.7,29.92,North,0,0.7,0.7,99,0.00,,,0.00,1360.0,meteobridge,2013-09-13 05:05:00,
2013-09-13 01:11:00,73.0,72.7,29.91,East,90,2.2,2.2,99,0.00,,,0.00,1396.0,meteobridge,2013-09-13 05:11:00,
2013-09-13 01:16:00,73.0,72.7,29.91,NE,45,2.2,2.2,99,0.00,,,0.00,1396.0,meteobridge,2013-09-13 05:16:00,
2013-09-13 01:21:00,73.2,72.9,29.91,NE,45,2.2,3.8,99,0.00,,,0.00,1433.0,meteobridge,2013-09-13 05:21:00,
2013-09-13 01:26:00,73.0,72.7,29.92,ENE,68,2.2,2.2,99,0.00,,,0.00,1433.0,meteobridge,2013-09-13 05:26:00,
2013-09-13 01:31:00,73.0,72.7,29.91,East,90,2.2,2.2,99,0.00,,,0.00,1433.0,meteobridge,2013-09-13 05:31:00,
2013-09-13 01:36:00,73.0,72.7,29.92,East,90,3.1,3.1,99,0.00,,,0.00,1433.0,meteobridge,2013-09-13 05:36:00,
2013-09-13 01:42:00,73.0,72.7,29.91,East,90,2.2,2.2,99,0.00,,,0.00,1470.0,meteobridge,2013-09-13 05:42:00,
2013-09-13 01:47:00,73.0,72.7,29.91,South,180,1.6,2.2,99,0.00,,,0.00,1470.0,meteobridge,2013-09-13 05:47:00,
2013-09-13 01:52:00,73.0,72.7,29.91,East,90,2.2,2.2,99,0.00,,,0.00,1506.0,meteobridge,2013-09-13 05:52:00,
2013-09-13 01:57:00,73.0,72.7,29.91,SE,135,3.1,3.1,99,0.00,,,0.00,1506.0,meteobridge,2013-09-13 05:57:00,
2013-09-13 02:02:00,72.9,72.5,29.91,South,180,0.7,1.6,99,0.00,,,0.00,1543.0,meteobridge,2013-09-13 06:02:00,
2013-09-13 02:07:00,72.9,72.5,29.91,East,90,2.2,2.2,99,0.00,,,0.00,1543.0,meteobridge,2013-09-13 06:07:00,
2013-09-13 02:13:00,72.9,72.5,29.91,NE,45,1.6,3.1,99,0.00,,,0.00,1580.0,meteobridge,2013-09-13 06:13:00,
2013-09-13 02:18:00,73.0,72.7,29.91,East,90,0.7,0.7,99,0.00,,,0.00,1580.0,meteobridge,2013-09-13 06:18:00,
2013-09-13 02:23:00,73.0,72.7,29.91,East,90,3.1,3.1,99,0.00,,,0.00,1580.0,meteobridge,2013-09-13 06:23:00,
2013-09-13 02:28:00,73.0,72.7,29.91,South,180,0.0,1.6,99,0.00,,,0.00,1580.0,meteobridge,2013-09-13 06:28:00,
2013-09-13 02:33:00,72.9,72.5,29.91,South,180,0.0,0.0,99,0.00,,,0.00,1616.0,meteobridge,2013-09-13 06:33:00,
2013-09-13 02:38:00,72.9,72.5,29.91,South,180,0.0,0.0,99,0.00,,,0.00,1616.0,meteobridge,2013-09-13 06:38:00,
2013-09-13 02:44:00,72.7,72.3,29.91,South,180,0.7,0.7,99,0.00,,,0.00,1653.0,meteobridge,2013-09-13 06:44:00,
2013-09-13 02:49:00,72.7,72.3,29.91,East,90,1.6,1.6,99,0.00,,,0.00,1653.0,meteobridge,2013-09-13 06:49:00,
2013-09-13 02:54:00,72.9,72.5,29.91,East,90,2.2,2.2,99,0.00,,,0.00,1689.0,meteobridge,2013-09-13 06:54:00,
2013-09-13 02:59:00,72.9,72.5,29.91,NE,45,1.6,1.6,99,0.00,,,0.00,1689.0,meteobridge,2013-09-13 06:59:00,
2013-09-13 03:04:00,72.7,72.3,29.91,SE,135,1.6,1.6,99,0.00,,,0.00,1726.0,meteobridge,2013-09-13 07:04:00,
2013-09-13 03:09:00,72.7,72.3,29.91,East,90,1.6,1.6,99,0.00,,,0.00,1726.0,meteobridge,2013-09-13 07:09:00,
2013-09-13 03:15:00,72.7,72.3,29.91,East,90,1.6,1.6,99,0.00,,,0.00,1726.0,meteobridge,2013-09-13 07:15:00,
2013-09-13 03:20:00,72.9,72.5,29.91,East,90,2.2,3.1,99,0.00,,,0.00,1726.0,meteobridge,2013-09-13 07:20:00,
2013-09-13 03:25:00,72.9,72.5,29.90,NE,45,2.2,3.1,99,0.00,,,0.00,1689.0,meteobridge,2013-09-13 07:25:00,
2013-09-13 03:30:00,72.9,72.5,29.90,NE,45,2.2,2.2,99,0.00,,,0.00,1689.0,meteobridge,2013-09-13 07:30:00,
2013-09-13 03:35:00,73.0,72.7,29.90,SE,135,1.6,2.2,99,0.00,,,0.00,1653.0,meteobridge,2013-09-13 07:35:00,
2013-09-13 03:40:00,72.9,72.5,29.90,South,180,0.7,1.6,99,0.00,,,0.00,1616.0,meteobridge,2013-09-13 07:40:00,
2013-09-13 03:46:00,72.7,72.3,29.90,NE,45,0.7,0.7,99,0.00,,,0.00,1616.0,meteobridge,2013-09-13 07:46:00,
2013-09-13 03:51:00,72.7,72.3,29.90,NE,45,0.7,0.7,99,0.00,,,0.00,1616.0,meteobridge,2013-09-13 07:51:00,
2013-09-13 03:56:00,72.7,72.3,29.90,East,90,1.6,2.2,99,0.00,,,0.00,1616.0,meteobridge,2013-09-13 07:56:00,
2013-09-13 04:01:00,72.9,72.5,29.90,NE,45,0.7,1.6,99,0.00,,,0.00,1653.0,meteobridge,2013-09-13 08:01:00,
2013-09-13 04:06:00,72.9,72.5,29.90,East,90,0.0,0.7,99,0.00,,,0.00,1653.0,meteobridge,2013-09-13 08:06:00,
2013-09-13 04:11:00,72.9,72.5,29.90,East,90,1.6,1.6,99,0.00,,,0.00,1689.0,meteobridge,2013-09-13 08:11:00,
2013-09-13 04:17:00,72.9,72.5,29.89,East,90,1.6,1.6,99,0.00,,,0.00,1689.0,meteobridge,2013-09-13 08:17:00,
2013-09-13 04:22:00,72.9,72.5,29.89,East,90,0.7,1.6,99,0.00,,,0.00,1726.0,meteobridge,2013-09-13 08:22:00,
2013-09-13 04:27:00,72.7,72.3,29.89,East,90,1.6,1.6,99,0.00,,,0.00,1726.0,meteobridge,2013-09-13 08:27:00,
2013-09-13 04:32:00,72.7,72.3,29.89,East,90,1.6,1.6,99,0.00,,,0.00,1726.0,meteobridge,2013-09-13 08:32:00,
2013-09-13 04:37:00,72.7,72.3,29.89,SE,135,0.7,1.6,99,0.00,,,0.00,1726.0,meteobridge,2013-09-13 08:37:00,
2013-09-13 04:42:00,72.7,72.3,29.89,South,180,0.7,0.7,99,0.00,,,0.00,1763.0,meteobridge,2013-09-13 08:42:00,
2013-09-13 04:48:00,72.5,72.1,29.89,East,90,1.6,2.2,99,0.00,,,0.00,1763.0,meteobridge,2013-09-13 08:48:00,
2013-09-13 04:53:00,72.7,72.3,29.89,NE,45,0.0,0.7,99,0.00,,,0.00,1763.0,meteobridge,2013-09-13 08:53:00,
2013-09-13 04:58:00,72.5,72.1,29.89,East,90,1.6,1.6,99,0.00,,,0.00,1763.0,meteobridge,2013-09-13 08:58:00,
2013-09-13 05:03:00,72.5,72.1,29.89,South,180,1.6,1.6,99,0.00,,,0.00,1689.0,meteobridge,2013-09-13 09:03:00,
2013-09-13 05:08:00,72.5,72.1,29.89,East,90,2.2,2.2,99,0.00,,,0.00,1689.0,meteobridge,2013-09-13 09:08:00,
2013-09-13 05:13:00,72.5,72.1,29.88,East,90,1.6,2.2,99,0.00,,,0.00,1653.0,meteobridge,2013-09-13 09:13:00,
2013-09-13 05:19:00,72.7,72.3,29.89,East,90,1.6,1.6,99,0.00,,,0.00,1653.0,meteobridge,2013-09-13 09:19:00,
2013-09-13 05:24:00,72.7,72.3,29.89,East,90,2.2,2.2,99,0.00,,,0.00,1653.0,meteobridge,2013-09-13 09:24:00,
2013-09-13 05:29:00,72.5,72.1,29.89,East,90,0.0,0.7,99,0.00,,,0.00,1653.0,meteobridge,2013-09-13 09:29:00,
2013-09-13 05:34:00,72.5,72.1,29.89,East,90,0.7,0.7,99,0.00,,,0.00,1653.0,meteobridge,2013-09-13 09:34:00,
2013-09-13 05:39:00,72.5,72.1,29.89,SW,225,0.0,0.0,99,0.00,,,0.00,1653.0,meteobridge,2013-09-13 09:39:00,
2013-09-13 05:44:00,72.1,71.8,29.89,SW,225,0.0,0.0,99,0.00,,,0.00,1653.0,meteobridge,2013-09-13 09:44:00,
2013-09-13 05:50:00,72.0,71.6,29.90,SW,225,0.0,0.0,99,0.00,,,0.00,1653.0,meteobridge,2013-09-13 09:50:00,
2013-09-13 05:55:00,72.1,71.8,29.90,NW,315,0.0,0.0,99,0.00,,,0.00,1653.0,meteobridge,2013-09-13 09:55:00,
2013-09-13 06:00:00,72.1,71.8,29.90,NW,315,0.0,0.0,99,0.00,,,0.00,1653.0,meteobridge,2013-09-13 10:00:00,
2013-09-13 06:05:00,72.1,71.8,29.90,NW,315,0.0,0.0,99,0.00,,,0.00,1653.0,meteobridge,2013-09-13 10:05:00,
2013-09-13 06:10:00,72.1,71.8,29.90,SW,225,0.0,0.0,99,0.00,,,0.00,1653.0,meteobridge,2013-09-13 10:10:00,
2013-09-13 06:16:00,72.0,71.6,29.90,SW,225,0.0,0.0,99,0.00,,,0.00,1653.0,meteobridge,2013-09-13 10:16:00,
2013-09-13 06:21:00,71.8,71.4,29.90,SW,225,0.0,0.0,99,0.00,,,0.00,1653.0,meteobridge,2013-09-13 10:21:00,
2013-09-13 06:26:00,72.0,71.6,29.90,NNE,23,0.0,1.6,99,0.00,,,0.00,1653.0,meteobridge,2013-09-13 10:26:00,
2013-09-13 06:31:00,72.1,71.8,29.90,East,90,1.6,1.6,99,0.00,,,0.00,1653.0,meteobridge,2013-09-13 10:31:00,
2013-09-13 06:36:00,72.3,72.0,29.90,East,90,0.7,0.7,99,0.00,,,0.00,1653.0,meteobridge,2013-09-13 10:36:00,
2013-09-13 06:41:00,72.3,72.0,29.90,NE,45,0.0,0.7,99,0.00,,,0.00,1653.0,meteobridge,2013-09-13 10:41:00,
2013-09-13 06:47:00,72.3,72.0,29.90,NE,45,0.0,0.0,99,0.00,,,0.00,1653.0,meteobridge,2013-09-13 10:47:00,
2013-09-13 06:52:00,72.3,72.0,29.90,NE,45,0.0,0.0,99,0.00,,,0.00,1653.0,meteobridge,2013-09-13 10:52:00,
2013-09-13 06:57:00,72.1,71.8,29.90,South,180,0.0,0.0,99,0.00,,,0.00,1653.0,meteobridge,2013-09-13 10:57:00,
2013-09-13 07:02:00,72.1,71.8,29.90,South,180,0.7,0.7,99,0.00,,,0.00,1653.0,meteobridge,2013-09-13 11:02:00,
2013-09-13 07:07:00,72.0,71.6,29.90,South,180,0.0,0.0,99,0.00,,,0.00,1653.0,meteobridge,2013-09-13 11:07:00,
2013-09-13 07:12:00,72.0,71.6,29.90,South,180,0.0,0.0,99,0.00,,,0.00,1653.0,meteobridge,2013-09-13 11:12:00,
2013-09-13 07:18:00,72.1,71.8,29.90,East,90,1.6,1.6,99,0.00,,,0.00,1653.0,meteobridge,2013-09-13 11:18:00,
2013-09-13 07:23:00,72.3,72.0,29.90,SE,135,1.6,2.2,99,0.00,,,0.00,1653.0,meteobridge,2013-09-13 11:23:00,
2013-09-13 07:28:00,72.5,72.1,29.90,East,90,1.6,2.2,99,0.00,,,0.00,1653.0,meteobridge,2013-09-13 11:28:00,
2013-09-13 07:33:00,72.7,72.3,29.90,North,0,0.7,1.6,99,0.00,,,0.00,1653.0,meteobridge,2013-09-13 11:33:00,
2013-09-13 07:38:00,72.9,72.5,29.91,East,90,1.6,1.6,99,0.00,,,0.00,1653.0,meteobridge,2013-09-13 11:38:00,
2013-09-13 07:43:00,73.4,73.0,29.91,East,90,0.7,1.6,99,0.00,,,0.00,1653.0,meteobridge,2013-09-13 11:43:00,
2013-09-13 07:49:00,73.9,73.6,29.91,North,0,0.0,0.7,99,0.00,,,0.00,1653.0,meteobridge,2013-09-13 11:49:00,
2013-09-13 07:54:00,74.8,74.5,29.91,NE,45,1.6,1.6,99,0.00,,,0.00,1653.0,meteobridge,2013-09-13 11:54:00,
2013-09-13 07:59:00,75.4,75.0,29.91,East,90,0.7,1.6,99,0.00,,,0.00,1653.0,meteobridge,2013-09-13 11:59:00,
2013-09-13 08:04:00,75.9,75.6,29.91,South,180,2.2,2.2,99,0.00,,,0.00,1653.0,meteobridge,2013-09-13 12:04:00,
2013-09-13 08:09:00,76.1,75.7,29.91,East,90,1.6,1.6,99,0.00,,,0.00,1653.0,meteobridge,2013-09-13 12:09:00,
2013-09-13 08:14:00,76.8,76.5,29.91,South,180,1.6,2.2,99,0.00,,,0.00,1653.0,meteobridge,2013-09-13 12:14:00,
2013-09-13 08:20:00,77.0,76.6,29.91,SE,135,1.6,2.2,99,0.00,,,0.00,1653.0,meteobridge,2013-09-13 12:20:00,
2013-09-13 08:25:00,77.5,77.2,29.92,South,180,2.2,2.2,99,0.00,,,0.00,1653.0,meteobridge,2013-09-13 12:25:00,
2013-09-13 08:30:00,77.7,77.4,29.92,South,180,1.6,1.6,99,0.00,,,0.00,1653.0,meteobridge,2013-09-13 12:30:00,
2013-09-13 08:35:00,78.1,77.7,29.92,SW,225,1.6,2.2,99,0.00,,,0.00,1653.0,meteobridge,2013-09-13 12:35:00,
2013-09-13 08:40:00,77.9,77.5,29.92,South,180,1.6,1.6,99,0.00,,,0.00,1653.0,meteobridge,2013-09-13 12:40:00,
2013-09-13 08:45:00,78.4,78.1,29.92,SSW,203,2.2,2.2,99,0.00,,,0.00,1616.0,meteobridge,2013-09-13 12:45:00,
2013-09-13 08:51:00,79.2,78.8,29.91,WSW,248,2.2,3.1,99,0.00,,,0.00,1616.0,meteobridge,2013-09-13 12:51:00,
2013-09-13 08:56:00,79.3,79.0,29.92,South,180,2.2,2.2,99,0.00,,,0.00,1616.0,meteobridge,2013-09-13 12:56:00,
2013-09-13 09:01:00,79.2,78.8,29.92,South,180,2.2,2.2,99,0.00,,,0.00,1616.0,meteobridge,2013-09-13 13:01:00,
2013-09-13 09:06:00,79.7,79.3,29.91,West,270,2.2,2.2,99,0.00,,,0.00,1616.0,meteobridge,2013-09-13 13:06:00,
2013-09-13 09:11:00,79.7,79.3,29.91,SW,225,2.2,2.2,99,0.00,,,0.00,1616.0,meteobridge,2013-09-13 13:11:00,
2013-09-13 09:16:00,80.2,79.9,29.91,East,90,3.1,3.1,99,0.00,,,0.00,1616.0,meteobridge,2013-09-13 13:16:00,
2013-09-13 09:22:00,80.4,79.2,29.91,South,180,2.2,2.2,96,0.00,,,0.00,1616.0,meteobridge,2013-09-13 13:22:00,
2013-09-13 09:27:00,80.6,79.3,29.91,West,270,1.6,1.6,96,0.00,,,0.00,1616.0,meteobridge,2013-09-13 13:27:00,
2013-09-13 09:32:00,81.5,79.9,29.92,SSW,203,1.6,2.2,95,0.00,,,0.00,1580.0,meteobridge,2013-09-13 13:32:00,
2013-09-13 09:37:00,82.4,80.2,29.91,West,270,1.6,1.6,93,0.00,,,0.00,1580.0,meteobridge,2013-09-13 13:37:00,
2013-09-13 09:42:00,83.5,80.6,29.91,East,90,1.6,1.6,91,0.00,,,0.00,1580.0,meteobridge,2013-09-13 13:42:00,
2013-09-13 09:47:00,83.8,79.2,29.91,South,180,1.6,1.6,86,0.00,,,0.00,1580.0,meteobridge,2013-09-13 13:47:00,
2013-09-13 09:53:00,83.1,78.4,29.91,South,180,1.6,1.6,86,0.00,,,0.00,1506.0,meteobridge,2013-09-13 13:53:00,
2013-09-13 09:58:00,83.7,79.0,29.92,NW,315,2.2,2.2,86,0.00,,,0.00,1506.0,meteobridge,2013-09-13 13:58:00,
2013-09-13 10:03:00,84.7,79.3,29.92,South,180,1.6,1.6,84,0.00,,,0.00,1396.0,meteobridge,2013-09-13 14:03:00,
2013-09-13 10:08:00,85.8,80.1,29.92,NNW,338,1.6,1.6,83,0.00,,,0.00,1396.0,meteobridge,2013-09-13 14:08:00,
2013-09-13 10:13:00,86.5,79.7,29.92,East,90,2.2,2.2,80,0.00,,,0.00,1287.0,meteobridge,2013-09-13 14:13:00,
2013-09-13 10:18:00,87.1,77.7,29.91,SW,225,2.2,3.1,74,0.00,,,0.00,1287.0,meteobridge,2013-09-13 14:18:00,
2013-09-13 10:24:00,87.3,77.9,29.91,SE,135,2.2,3.1,74,0.00,,,0.00,1177.0,meteobridge,2013-09-13 14:24:00,
2013-09-13 10:29:00,87.4,78.6,29.91,WNW,293,2.2,2.2,75,0.00,,,0.00,1177.0,meteobridge,2013-09-13 14:29:00,
2013-09-13 10:34:00,87.6,77.5,29.91,East,90,1.6,1.6,72,0.00,,,0.00,1067.0,meteobridge,2013-09-13 14:34:00,
2013-09-13 10:39:00,88.0,76.5,29.91,NW,315,1.6,3.1,69,0.00,,,0.00,1067.0,meteobridge,2013-09-13 14:39:00,
2013-09-13 10:44:00,88.3,77.7,29.91,NW,315,3.1,3.1,71,0.00,,,0.00,920.0,meteobridge,2013-09-13 14:44:00,
2013-09-13 10:49:00,88.9,77.4,29.91,North,0,3.1,3.8,69,0.00,,,0.00,920.0,meteobridge,2013-09-13 14:49:00,
2013-09-13 10:55:00,88.9,77.0,29.91,West,270,3.8,3.8,68,0.00,,,0.00,811.0,meteobridge,2013-09-13 14:55:00,
2013-09-13 11:00:00,89.1,75.7,29.91,NW,315,3.8,3.8,65,0.00,,,0.00,811.0,meteobridge,2013-09-13 15:00:00,
2013-09-13 11:05:00,89.2,76.5,29.91,North,0,2.2,3.1,66,0.00,,,0.00,701.0,meteobridge,2013-09-13 15:05:00,
2013-09-13 11:10:00,89.6,76.3,29.92,WNW,293,2.2,2.2,65,0.00,,,0.00,701.0,meteobridge,2013-09-13 15:10:00,
2013-09-13 11:15:00,90.0,76.1,29.91,NE,45,3.8,3.8,64,0.00,,,0.00,627.0,meteobridge,2013-09-13 15:15:00,
2013-09-13 11:20:00,89.1,75.2,29.92,NW,315,4.5,4.5,64,0.00,,,0.00,554.0,meteobridge,2013-09-13 15:20:00,
2013-09-13 11:26:00,89.4,76.6,29.92,South,180,2.2,3.1,66,0.00,,,0.00,554.0,meteobridge,2013-09-13 15:26:00,
2013-09-13 11:31:00,90.1,76.3,29.92,NW,315,5.4,5.4,64,0.00,,,0.00,554.0,meteobridge,2013-09-13 15:31:00,
2013-09-13 11:36:00,90.5,76.1,29.92,SW,225,0.7,2.2,63,0.00,,,0.00,554.0,meteobridge,2013-09-13 15:36:00,
2013-09-13 11:41:00,91.0,75.7,29.92,SSE,158,1.6,1.6,61,0.00,,,0.00,554.0,meteobridge,2013-09-13 15:41:00,
2013-09-13 11:46:00,91.2,75.4,29.91,West,270,1.6,4.5,60,0.00,,,0.00,554.0,meteobridge,2013-09-13 15:46:00,
2013-09-13 11:51:00,90.9,74.5,29.91,NW,315,3.1,3.8,59,0.00,,,0.00,591.0,meteobridge,2013-09-13 15:51:00,
2013-09-13 11:57:00,91.2,75.4,29.91,West,270,1.6,1.6,60,0.00,,,0.00,591.0,meteobridge,2013-09-13 15:57:00,
2013-09-13 12:02:00,91.6,74.7,29.91,SE,135,0.7,2.2,58,0.00,,,0.00,554.0,meteobridge,2013-09-13 16:02:00,
2013-09-13 12:07:00,91.9,73.4,29.91,NNE,23,4.5,4.5,55,0.00,,,0.00,554.0,meteobridge,2013-09-13 16:07:00,
2013-09-13 12:12:00,91.8,73.8,29.91,NW,315,3.8,4.5,56,0.00,,,0.00,518.0,meteobridge,2013-09-13 16:12:00,
2013-09-13 12:17:00,91.6,73.6,29.91,South,180,5.4,5.4,56,0.00,,,0.00,518.0,meteobridge,2013-09-13 16:17:00,
2013-09-13 12:23:00,91.4,75.0,29.91,NW,315,1.6,3.1,59,0.00,,,0.00,518.0,meteobridge,2013-09-13 16:23:00,
2013-09-13 12:28:00,92.3,75.4,29.90,North,0,2.2,4.5,58,0.00,,,0.00,518.0,meteobridge,2013-09-13 16:28:00,
2013-09-13 12:33:00,91.9,71.8,29.90,East,90,5.4,5.4,52,0.00,,,0.00,518.0,meteobridge,2013-09-13 16:33:00,
2013-09-13 12:38:00,90.9,73.6,29.90,NE,45,2.2,3.1,57,0.00,,,0.00,518.0,meteobridge,2013-09-13 16:38:00,
2013-09-13 12:43:00,91.8,74.8,29.89,SE,135,4.5,4.5,58,0.00,,,0.00,554.0,meteobridge,2013-09-13 16:43:00,
2013-09-13 12:48:00,92.5,73.9,29.90,WNW,293,3.1,3.8,55,0.00,,,0.00,554.0,meteobridge,2013-09-13 16:48:00,
2013-09-13 12:54:00,92.7,74.1,29.89,West,270,2.2,2.2,55,0.00,,,0.00,554.0,meteobridge,2013-09-13 16:54:00,
2013-09-13 12:59:00,91.9,73.9,29.90,West,270,3.8,3.8,56,0.00,,,0.00,554.0,meteobridge,2013-09-13 16:59:00,
2013-09-13 13:04:00,91.8,73.8,29.89,NE,45,2.2,2.2,56,0.00,,,0.00,554.0,meteobridge,2013-09-13 17:04:00,
2013-09-13 13:09:00,92.3,73.8,29.89,South,180,2.2,2.2,55,0.00,,,0.00,554.0,meteobridge,2013-09-13 17:09:00,
2013-09-13 13:14:00,91.9,72.9,29.89,West,270,3.1,5.4,54,0.00,,,0.00,554.0,meteobridge,2013-09-13 17:14:00,
2013-09-13 13:19:00,92.5,74.5,29.88,North,0,2.2,3.1,56,0.00,,,0.00,554.0,meteobridge,2013-09-13 17:19:00,
2013-09-13 13:25:00,92.3,73.2,29.88,West,270,0.7,1.6,54,0.00,,,0.00,518.0,meteobridge,2013-09-13 17:25:00,
2013-09-13 13:30:00,92.1,73.0,29.88,South,180,1.6,2.2,54,0.00,,,0.00,518.0,meteobridge,2013-09-13 17:30:00,
2013-09-13 13:35:00,91.8,73.8,29.88,NE,45,1.6,2.2,56,0.00,,,0.00,554.0,meteobridge,2013-09-13 17:35:00,
2013-09-13 13:40:00,91.6,72.5,29.88,East,90,3.1,3.1,54,0.00,,,0.00,554.0,meteobridge,2013-09-13 17:40:00,
2013-09-13 13:45:00,91.2,73.4,29.88,ENE,68,1.6,3.8,56,0.00,,,0.00,554.0,meteobridge,2013-09-13 17:45:00,
2013-09-13 13:50:00,91.8,72.7,29.88,East,90,1.6,2.2,54,0.00,,,0.00,591.0,meteobridge,2013-09-13 17:50:00,
2013-09-13 13:56:00,91.9,73.9,29.87,North,0,1.6,1.6,56,0.00,,,0.00,591.0,meteobridge,2013-09-13 17:56:00,
2013-09-13 14:01:00,92.5,73.4,29.87,South,180,1.6,1.6,54,0.00,,,0.00,591.0,meteobridge,2013-09-13 18:01:00,
2013-09-13 14:06:00,92.5,72.3,29.87,SE,135,2.2,2.2,52,0.00,,,0.00,591.0,meteobridge,2013-09-13 18:06:00,
2013-09-13 14:11:00,91.2,72.3,29.86,South,180,2.2,2.2,54,0.00,,,0.00,591.0,meteobridge,2013-09-13 18:11:00,
2013-09-13 14:16:00,91.6,73.0,29.87,NE,45,2.2,2.2,55,0.00,,,0.00,591.0,meteobridge,2013-09-13 18:16:00,
2013-09-13 14:21:00,92.3,72.1,29.86,South,180,3.1,3.8,52,0.00,,,0.00,627.0,meteobridge,2013-09-13 18:21:00,
2013-09-13 14:27:00,91.6,71.4,29.86,West,270,2.2,2.2,52,0.00,,,0.00,627.0,meteobridge,2013-09-13 18:27:00,
2013-09-13 14:32:00,91.0,72.7,29.86,South,180,4.5,4.5,55,0.00,,,0.00,554.0,meteobridge,2013-09-13 18:32:00,
2013-09-13 14:37:00,90.1,73.9,29.86,WSW,248,7.6,7.6,59,0.00,,,0.00,554.0,meteobridge,2013-09-13 18:37:00,
2013-09-13 14:42:00,88.9,74.7,29.86,WNW,293,2.2,2.2,63,0.00,,,0.00,518.0,meteobridge,2013-09-13 18:42:00,
2013-09-13 14:47:00,88.7,75.9,29.86,SW,225,4.5,4.5,66,0.00,,,0.00,518.0,meteobridge,2013-09-13 18:47:00,
2013-09-13 14:52:00,88.2,76.6,29.86,NW,315,3.1,4.5,69,0.00,,,0.00,518.0,meteobridge,2013-09-13 18:52:00,
2013-09-13 14:58:00,88.0,76.5,29.85,SW,225,0.7,2.2,69,0.00,,,0.00,518.0,meteobridge,2013-09-13 18:58:00,
2013-09-13 15:03:00,88.2,76.3,29.85,SW,225,0.7,2.2,68,0.00,,,0.00,518.0,meteobridge,2013-09-13 19:03:00,
2013-09-13 15:08:00,88.3,75.6,29.85,NW,315,4.5,4.5,66,0.00,,,0.00,518.0,meteobridge,2013-09-13 19:08:00,
2013-09-13 15:13:00,88.3,76.5,29.85,South,180,4.5,6.0,68,0.00,,,0.00,518.0,meteobridge,2013-09-13 19:13:00,
2013-09-13 15:18:00,88.3,75.9,29.85,SW,225,8.3,8.3,67,0.00,,,0.00,518.0,meteobridge,2013-09-13 19:18:00,
2013-09-13 15:23:00,87.4,75.9,29.85,NW,315,6.9,6.9,69,0.00,,,0.00,554.0,meteobridge,2013-09-13 19:23:00,
2013-09-13 15:29:00,85.6,74.7,29.85,NW,315,5.4,6.0,70,0.00,,,0.00,554.0,meteobridge,2013-09-13 19:29:00,
2013-09-13 15:34:00,84.0,74.8,29.84,West,270,3.8,4.5,74,0.00,,,0.00,554.0,meteobridge,2013-09-13 19:34:00,
2013-09-13 15:39:00,81.7,74.1,29.85,NW,315,9.8,13.0,78,0.04,,,0.04,554.0,meteobridge,2013-09-13 19:39:00,
2013-09-13 15:44:00,79.3,74.1,29.85,SW,225,11.4,11.4,84,0.07,,,0.07,554.0,meteobridge,2013-09-13 19:44:00,
2013-09-13 15:49:00,77.5,73.8,29.85,North,0,9.2,9.8,88,0.12,,,0.12,554.0,meteobridge,2013-09-13 19:49:00,
2013-09-13 15:54:00,76.8,73.4,29.85,West,270,3.8,3.8,89,0.13,,,0.13,591.0,meteobridge,2013-09-13 19:54:00,
2013-09-13 16:00:00,76.5,73.9,29.85,NW,315,8.3,8.3,92,0.15,,,0.15,591.0,meteobridge,2013-09-13 20:00:00,
2013-09-13 16:05:00,76.1,74.3,29.85,West,270,6.9,6.9,94,0.17,,,0.17,591.0,meteobridge,2013-09-13 20:05:00,
2013-09-13 16:10:00,75.9,74.3,29.85,NW,315,4.5,5.4,95,0.18,,,0.18,591.0,meteobridge,2013-09-13 20:10:00,
2013-09-13 16:15:00,75.9,74.7,29.85,SE,135,5.4,8.3,96,0.22,,,0.22,591.0,meteobridge,2013-09-13 20:15:00,
2013-09-13 16:20:00,75.6,74.3,29.85,North,0,6.9,6.9,96,0.28,,,0.28,591.0,meteobridge,2013-09-13 20:20:00,
2013-09-13 16:25:00,75.4,74.5,29.84,West,270,6.9,6.9,97,0.31,,,0.31,628.0,meteobridge,2013-09-13 20:25:00,
2013-09-13 16:31:00,75.2,74.7,29.84,NW,315,2.2,3.1,98,0.31,,,0.31,591.0,meteobridge,2013-09-13 20:31:00,
2013-09-13 16:36:00,75.4,74.8,29.84,West,270,2.2,2.2,98,0.30,,,0.31,591.0,meteobridge,2013-09-13 20:36:00,
2013-09-13 16:41:00,75.6,75.0,29.84,NW,315,1.6,1.6,98,0.25,,,0.31,554.0,meteobridge,2013-09-13 20:41:00,
2013-09-13 16:46:00,76.1,75.6,29.84,WSW,248,1.6,1.6,98,0.24,,,0.32,554.0,meteobridge,2013-09-13 20:46:00,
2013-09-13 16:51:00,76.8,76.5,29.83,NW,315,3.1,3.1,99,0.20,,,0.32,518.0,meteobridge,2013-09-13 20:51:00,
2013-09-13 16:56:00,77.4,77.0,29.83,WNW,293,1.6,2.2,99,0.18,,,0.32,518.0,meteobridge,2013-09-13 20:56:00,
2013-09-13 17:02:00,77.7,77.4,29.83,NW,315,2.2,2.2,99,0.17,,,0.32,518.0,meteobridge,2013-09-13 21:02:00,
2013-09-13 17:07:00,78.4,78.1,29.84,NW,315,1.6,1.6,99,0.15,,,0.32,518.0,meteobridge,2013-09-13 21:07:00,
2013-09-13 17:12:00,78.6,78.3,29.84,NW,315,1.6,1.6,99,0.12,,,0.32,518.0,meteobridge,2013-09-13 21:12:00,
2013-09-13 17:17:00,79.3,79.0,29.83,West,270,1.6,1.6,99,0.06,,,0.32,518.0,meteobridge,2013-09-13 21:17:00,
2013-09-13 17:22:00,80.4,80.1,29.83,North,0,0.0,2.2,99,0.04,,,0.32,518.0,meteobridge,2013-09-13 21:22:00,
2013-09-13 17:27:00,81.7,81.3,29.83,West,270,4.5,4.5,99,0.01,,,0.32,518.0,meteobridge,2013-09-13 21:27:00,
2013-09-13 17:33:00,83.3,82.9,29.83,North,0,0.7,4.5,99,0.01,,,0.32,518.0,meteobridge,2013-09-13 21:33:00,
2013-09-13 17:38:00,84.6,84.2,29.83,SW,225,2.2,3.8,99,0.01,,,0.32,518.0,meteobridge,2013-09-13 21:38:00,
2013-09-13 17:43:00,85.8,84.2,29.84,West,270,1.6,3.1,95,0.00,,,0.32,518.0,meteobridge,2013-09-13 21:43:00,
2013-09-13 17:48:00,86.5,83.7,29.84,SW,225,2.2,2.2,91,0.00,,,0.32,518.0,meteobridge,2013-09-13 21:48:00,
2013-09-13 17:53:00,86.9,82.9,29.83,NW,315,2.2,2.2,88,0.00,,,0.32,518.0,meteobridge,2013-09-13 21:53:00,
2013-09-13 17:58:00,86.7,82.0,29.83,WSW,248,0.7,1.6,86,0.00,,,0.32,518.0,meteobridge,2013-09-13 21:58:00,
2013-09-13 18:04:00,86.5,81.5,29.83,NW,315,0.7,1.6,85,0.00,,,0.32,554.0,meteobridge,2013-09-13 22:04:00,
2013-09-13 18:09:00,86.2,80.8,29.83,East,90,2.2,2.2,84,0.00,,,0.32,554.0,meteobridge,2013-09-13 22:09:00,
2013-09-13 18:14:00,85.6,80.2,29.83,South,180,2.2,2.2,84,0.00,,,0.32,554.0,meteobridge,2013-09-13 22:14:00,
2013-09-13 18:19:00,85.3,80.2,29.83,South,180,1.6,1.6,85,0.00,,,0.32,554.0,meteobridge,2013-09-13 22:19:00,
2013-09-13 18:24:00,84.7,79.7,29.84,SE,135,0.7,3.1,85,0.00,,,0.32,554.0,meteobridge,2013-09-13 22:24:00,
2013-09-13 18:30:00,84.6,79.5,29.84,SW,225,1.6,1.6,85,0.00,,,0.32,554.0,meteobridge,2013-09-13 22:30:00,
2013-09-13 18:35:00,84.4,79.3,29.83,South,180,1.6,1.6,85,0.00,,,0.32,554.0,meteobridge,2013-09-13 22:35:00,
2013-09-13 18:40:00,84.2,79.2,29.83,South,180,1.6,1.6,85,0.00,,,0.32,554.0,meteobridge,2013-09-13 22:40:00,
2013-09-13 18:45:00,84.2,79.2,29.83,SW,225,0.0,0.7,85,0.00,,,0.32,591.0,meteobridge,2013-09-13 22:45:00,
2013-09-13 18:50:00,84.2,79.5,29.83,SW,225,0.0,0.0,86,0.00,,,0.32,591.0,meteobridge,2013-09-13 22:50:00,
2013-09-13 18:55:00,84.0,79.3,29.83,SW,225,0.0,0.0,86,0.00,,,0.32,591.0,meteobridge,2013-09-13 22:55:00,
2013-09-13 19:01:00,83.8,79.5,29.84,SW,225,0.0,0.0,87,0.00,,,0.32,591.0,meteobridge,2013-09-13 23:01:00,
2013-09-13 19:06:00,83.7,79.3,29.84,NW,315,0.0,0.0,87,0.00,,,0.32,591.0,meteobridge,2013-09-13 23:06:00,
2013-09-13 19:11:00,83.7,79.7,29.84,South,180,0.7,0.7,88,0.00,,,0.32,591.0,meteobridge,2013-09-13 23:11:00,
2013-09-13 19:16:00,83.3,79.7,29.84,West,270,0.7,1.6,89,0.00,,,0.32,591.0,meteobridge,2013-09-13 23:16:00,
2013-09-13 19:21:00,83.1,79.5,29.84,SW,225,0.0,0.0,89,0.00,,,0.32,628.0,meteobridge,2013-09-13 23:21:00,
2013-09-13 19:26:00,82.9,79.7,29.84,West,270,0.7,0.7,90,0.00,,,0.32,628.0,meteobridge,2013-09-13 23:26:00,
2013-09-13 19:32:00,82.8,79.9,29.84,NE,45,0.7,0.7,91,0.00,,,0.32,628.0,meteobridge,2013-09-13 23:32:00,
2013-09-13 19:37:00,82.4,79.5,29.84,West,270,0.0,1.6,91,0.00,,,0.32,628.0,meteobridge,2013-09-13 23:37:00,
2013-09-13 19:42:00,82.2,79.3,29.84,NW,315,0.0,0.7,91,0.00,,,0.32,628.0,meteobridge,2013-09-13 23:42:00,
2013-09-13 19:47:00,81.9,79.0,29.84,West,270,0.7,0.7,91,0.00,,,0.32,628.0,meteobridge,2013-09-13 23:47:00,
2013-09-13 19:52:00,81.7,78.8,29.84,West,270,0.7,1.6,91,0.00,,,0.32,628.0,meteobridge,2013-09-13 23:52:00,
2013-09-13 19:57:00,81.3,78.4,29.84,West,270,1.6,2.2,91,0.00,,,0.32,628.0,meteobridge,2013-09-13 23:57:00,
2013-09-13 20:03:00,81.1,78.6,29.84,West,270,1.6,1.6,92,0.00,,,0.32,664.0,meteobridge,2013-09-14 00:03:00,
2013-09-13 20:08:00,80.8,78.3,29.84,West,270,0.0,0.0,92,0.00,,,0.32,664.0,meteobridge,2013-09-14 00:08:00,
2013-09-13 20:13:00,80.8,78.3,29.84,West,270,0.0,0.0,92,0.00,,,0.32,664.0,meteobridge,2013-09-14 00:13:00,
2013-09-13 20:18:00,80.6,78.4,29.84,West,270,0.0,0.0,93,0.00,,,0.32,664.0,meteobridge,2013-09-14 00:18:00,
2013-09-13 20:23:00,80.4,78.6,29.84,West,270,0.0,0.0,94,0.00,,,0.32,701.0,meteobridge,2013-09-14 00:23:00,
2013-09-13 20:29:00,80.2,78.4,29.85,West,270,0.0,0.0,94,0.00,,,0.32,701.0,meteobridge,2013-09-14 00:29:00,
2013-09-13 20:34:00,80.1,78.4,29.85,West,270,0.0,0.0,95,0.00,,,0.32,701.0,meteobridge,2013-09-14 00:34:00,
2013-09-13 20:39:00,80.1,78.4,29.85,North,0,0.0,0.0,95,0.00,,,0.32,701.0,meteobridge,2013-09-14 00:39:00,
2013-09-13 20:44:00,79.9,78.3,29.85,West,270,0.0,0.0,95,0.00,,,0.32,737.0,meteobridge,2013-09-14 00:44:00,
2013-09-13 20:49:00,79.7,78.4,29.85,West,270,0.0,0.0,96,0.00,,,0.32,737.0,meteobridge,2013-09-14 00:49:00,
2013-09-13 20:54:00,79.5,78.3,29.85,West,270,0.0,0.0,96,0.00,,,0.32,737.0,meteobridge,2013-09-14 00:54:00,
2013-09-13 21:00:00,79.3,78.1,29.86,West,270,0.7,0.7,96,0.00,,,0.32,737.0,meteobridge,2013-09-14 01:00:00,
2013-09-13 21:05:00,79.2,77.9,29.86,West,270,0.0,0.0,96,0.00,,,0.32,774.0,meteobridge,2013-09-14 01:05:00,
2013-09-13 21:10:00,79.0,78.1,29.86,South,180,0.7,1.6,97,0.00,,,0.32,774.0,meteobridge,2013-09-14 01:10:00,
2013-09-13 21:15:00,79.0,78.1,29.86,South,180,0.0,0.0,97,0.00,,,0.32,774.0,meteobridge,2013-09-14 01:15:00,
2013-09-13 21:20:00,78.8,78.3,29.86,West,270,0.0,0.0,98,0.00,,,0.32,811.0,meteobridge,2013-09-14 01:20:00,
2013-09-13 21:25:00,78.8,78.3,29.86,West,270,0.0,0.0,98,0.00,,,0.32,811.0,meteobridge,2013-09-14 01:25:00,
2013-09-13 21:31:00,78.6,78.3,29.86,South,180,0.0,0.0,99,0.00,,,0.32,847.0,meteobridge,2013-09-14 01:31:00,
2013-09-13 21:36:00,78.6,78.3,29.86,West,270,0.0,0.0,99,0.00,,,0.32,847.0,meteobridge,2013-09-14 01:36:00,
2013-09-13 21:41:00,78.4,78.1,29.86,South,180,0.0,0.0,99,0.00,,,0.32,847.0,meteobridge,2013-09-14 01:41:00,
2013-09-13 21:46:00,78.4,78.1,29.86,South,180,0.0,0.0,99,0.00,,,0.32,847.0,meteobridge,2013-09-14 01:46:00,
2013-09-13 21:51:00,78.4,78.1,29.86,South,180,0.0,0.0,99,0.00,,,0.32,884.0,meteobridge,2013-09-14 01:51:00,
2013-09-13 21:56:00,78.3,77.9,29.87,West,270,0.0,0.7,99,0.00,,,0.32,884.0,meteobridge,2013-09-14 01:56:00,
2013-09-13 22:02:00,78.3,77.9,29.87,West,270,0.0,0.0,99,0.00,,,0.32,921.0,meteobridge,2013-09-14 02:02:00,
2013-09-13 22:07:00,78.1,77.7,29.87,West,270,0.0,0.0,99,0.00,,,0.32,921.0,meteobridge,2013-09-14 02:07:00,
2013-09-13 22:12:00,78.1,77.7,29.87,West,270,0.0,0.0,99,0.00,,,0.32,921.0,meteobridge,2013-09-14 02:12:00,
2013-09-13 22:17:00,78.1,77.7,29.87,West,270,0.0,0.0,99,0.00,,,0.32,921.0,meteobridge,2013-09-14 02:17:00,
2013-09-13 22:22:00,78.3,77.9,29.87,West,270,0.0,0.0,99,0.00,,,0.32,957.0,meteobridge,2013-09-14 02:22:00,
2013-09-13 22:27:00,78.1,77.7,29.87,West,270,0.0,0.0,99,0.00,,,0.32,957.0,meteobridge,2013-09-14 02:27:00,
2013-09-13 22:32:00,78.1,77.7,29.87,West,270,0.0,0.0,99,0.00,,,0.32,994.0,meteobridge,2013-09-14 02:32:00,
2013-09-13 22:38:00,78.1,77.7,29.87,West,270,0.0,0.0,99,0.00,,,0.32,994.0,meteobridge,2013-09-14 02:38:00,
2013-09-13 22:43:00,77.9,77.5,29.87,West,270,1.6,1.6,99,0.00,,,0.32,1030.0,meteobridge,2013-09-14 02:43:00,
2013-09-13 22:48:00,77.9,77.5,29.87,NW,315,0.0,0.7,99,0.00,,,0.32,1030.0,meteobridge,2013-09-14 02:48:00,
2013-09-13 22:53:00,77.7,77.4,29.87,West,270,0.0,0.0,99,0.00,,,0.32,1030.0,meteobridge,2013-09-14 02:53:00,
2013-09-13 22:58:00,77.7,77.4,29.87,West,270,0.0,0.0,99,0.00,,,0.32,1030.0,meteobridge,2013-09-14 02:58:00,
2013-09-13 23:03:00,77.7,77.4,29.87,West,270,0.0,0.0,99,0.00,,,0.32,1067.0,meteobridge,2013-09-14 03:03:00,
2013-09-13 23:09:00,77.7,77.4,29.87,West,270,0.0,0.0,99,0.00,,,0.32,1067.0,meteobridge,2013-09-14 03:09:00,
2013-09-13 23:14:00,77.7,77.4,29.87,West,270,0.0,0.0,99,0.00,,,0.32,1104.0,meteobridge,2013-09-14 03:14:00,
2013-09-13 23:19:00,77.7,77.4,29.87,West,270,0.0,0.0,99,0.00,,,0.32,1104.0,meteobridge,2013-09-14 03:19:00,
2013-09-13 23:24:00,77.5,77.2,29.87,NE,45,0.0,0.0,99,0.00,,,0.32,1140.0,meteobridge,2013-09-14 03:24:00,
2013-09-13 23:29:00,77.7,77.4,29.88,NE,45,0.0,0.0,99,0.00,,,0.32,1140.0,meteobridge,2013-09-14 03:29:00,
2013-09-13 23:34:00,77.7,77.4,29.88,South,180,1.6,1.6,99,0.00,,,0.32,1140.0,meteobridge,2013-09-14 03:34:00,
2013-09-13 23:40:00,77.7,77.4,29.88,South,180,1.6,1.6,99,0.00,,,0.32,1140.0,meteobridge,2013-09-14 03:40:00,
2013-09-13 23:45:00,77.5,77.2,29.88,East,90,0.7,0.7,99,0.00,,,0.32,1177.0,meteobridge,2013-09-14 03:45:00,
2013-09-13 23:50:00,77.5,77.2,29.88,East,90,0.0,0.0,99,0.00,,,0.32,1177.0,meteobridge,2013-09-14 03:50:00,
2013-09-13 23:55:00,77.5,77.2,29.88,South,180,0.0,0.7,99,0.00,,,0.32,1213.0,meteobridge,2013-09-14 03:55:00,